Time;durP1;ratioP1;P1;durP2;ratioP2;P2;SDS_P1;SDS_P2;PMS_P1;PMS_P2;Temp;Humidity;BMP_temperature;BMP_pressure;BME280_temperature;BME280_humidity;BME280_pressure;Samples;Min_cycle;Max_cycle;Signal;HPM_P1;HPM_P2
2023/02/10 00:01:57;;;;;;;;;;;;;;;-0.02;63.94;102756.34;4107701;28;20017;-64
2023/02/10 00:03:59;;;;;;;;;;;;;;;-0.01;63.97;102758.06;4107967;28;20024;-63
2023/02/10 00:06:01;;;;;;;;;;;;;;;0.02;64.20;102765.06;4107509;28;20428;-64
2023/02/10 00:08:03;;;;;;;;;;;;;;;0.01;64.21;102757.13;4107181;28;20021;-63
2023/02/10 00:10:05;;;;;;;;;;;;;;;0.02;64.21;102756.19;4106480;28;20026;-64
2023/02/10 00:12:09;;;;;;;;;;;;;;;0.04;64.19;102749.06;4107714;28;20026;-64
2023/02/10 00:14:13;;;;;;;;;;;;;;;0.07;63.91;102755.09;4091060;29;20034;-64
2023/02/10 00:16:15;;;;;;;;;;;;;;;0.10;63.96;102748.81;4106962;28;20381;-63
2023/02/10 00:18:17;;;;;;;;;;;;;;;0.12;63.82;102761.09;4107781;28;20033;-62
2023/02/10 00:20:19;;;;;;;;;;;;;;;0.15;63.82;102765.44;4106975;28;20460;-64
2023/02/10 00:22:21;;;;;;;;;;;;;;;0.17;63.76;102761.81;4107371;28;20025;-64
2023/02/10 00:24:23;;;;;;;;;;;;;;;0.18;63.72;102770.63;4107264;28;20024;-63
2023/02/10 00:26:25;;;;;;;;;;;;;;;0.18;63.81;102760.84;4106902;28;20437;-63
2023/02/10 00:28:28;;;;;;;;;;;;;;;0.20;63.82;102760.81;4105090;28;20025;-64
2023/02/10 00:30:31;;;;;;;;;;;;;;;0.20;63.70;102760.81;4105450;28;20013;-63
2023/02/10 00:32:36;;;;;;;;;;;;;;;0.21;63.81;102762.53;4121717;28;20582;-64
2023/02/10 00:34:38;;;;;;;;;;;;;;;0.23;63.99;102765.13;4105644;28;20832;-65
2023/02/10 00:36:41;;;;;;;;;;;;;;;0.24;63.97;102770.41;4107658;28;20028;-64
2023/02/10 00:38:43;;;;;;;;;;;;;;;0.25;63.92;102764.16;4106178;28;20030;-64
2023/02/10 00:40:45;;;;;;;;;;;;;;;0.27;63.74;102764.97;4106845;28;20010;-64
2023/02/10 00:42:47;;;;;;;;;;;;;;;0.31;63.69;102771.00;4107829;28;20431;-64
2023/02/10 00:44:50;;;;;;;;;;;;;;;0.32;63.85;102767.44;4106634;28;20460;-63
2023/02/10 00:46:53;;;;;;;;;;;;;;;0.34;63.63;102766.44;4106006;28;20359;-64
2023/02/10 00:48:55;;;;;;;;;;;;;;;0.35;63.68;102765.53;4107286;28;20399;-63
2023/02/10 00:50:57;;;;;;;;;;;;;;;0.35;63.85;102773.50;4120607;28;20547;-64
2023/02/10 00:53:01;;;;;;;;;;;;;;;0.38;63.56;102779.59;4122622;28;20942;-63
2023/02/10 00:55:03;;;;;;;;;;;;;;;0.40;63.81;102773.31;4106128;28;20009;-64
2023/02/10 00:57:05;;;;;;;;;;;;;;;0.40;63.99;102772.47;4107737;28;20016;-64
2023/02/10 00:59:07;;;;;;;;;;;;;;;0.41;64.13;102772.41;4106025;28;20026;-64
2023/02/10 01:01:11;;;;;;;;;;;;;;;0.42;64.16;102775.91;4107082;28;20021;-64
2023/02/10 01:03:14;;;;;;;;;;;;;;;0.42;64.12;102775.91;4107144;28;20034;-64
2023/02/10 01:05:16;;;;;;;;;;;;;;;0.44;64.27;102779.38;4107257;28;20013;-64
2023/02/10 01:07:18;;;;;;;;;;;;;;;0.46;64.19;102777.53;4120680;28;20025;-64
2023/02/10 01:09:20;;;;;;;;;;;;;;;0.45;64.25;102778.44;4106375;28;20021;-63
2023/02/10 01:11:24;;;;;;;;;;;;;;;0.44;64.50;102780.25;4106805;28;20017;-64
2023/02/10 01:13:26;;;;;;;;;;;;;;;0.45;64.53;102786.41;4120808;28;20041;-63
2023/02/10 01:15:28;;;;;;;;;;;;;;;0.44;64.76;102784.69;4105533;28;20441;-61
2023/02/10 01:17:30;;;;;;;;;;;;;;;0.43;64.86;102783.81;4105590;28;20232;-63
2023/02/10 01:19:34;;;;;;;;;;;;;;;0.42;64.97;102784.75;4106304;28;20364;-63
2023/02/10 01:21:36;;;;;;;;;;;;;;;0.41;65.06;102783.03;4105899;28;20022;-63
2023/02/10 01:23:38;;;;;;;;;;;;;;;0.43;64.97;102786.47;4106583;28;20033;-65
2023/02/10 01:25:40;;;;;;;;;;;;;;;0.45;65.04;102784.63;4120601;28;20091;-65
2023/02/10 01:27:42;;;;;;;;;;;;;;;0.47;65.02;102792.53;4104549;28;20724;-65
2023/02/10 01:29:44;;;;;;;;;;;;;;;0.47;65.27;102790.75;4106010;28;20021;-65
2023/02/10 01:31:46;;;;;;;;;;;;;;;0.48;65.22;102783.66;4090042;29;20017;-63
2023/02/10 01:33:50;;;;;;;;;;;;;;;0.49;65.22;102791.56;4106643;28;20564;-64
2023/02/10 01:35:53;;;;;;;;;;;;;;;0.49;65.35;102791.56;4105764;28;20017;-64
2023/02/10 01:37:55;;;;;;;;;;;;;;;0.49;65.40;102794.22;4105828;28;20005;-65
2023/02/10 01:39:59;;;;;;;;;;;;;;;0.49;65.58;102788.03;4104601;28;20014;-64
2023/02/10 01:42:02;;;;;;;;;;;;;;;0.48;65.59;102786.31;4104571;28;20021;-64
2023/02/10 01:44:04;;;;;;;;;;;;;;;0.49;65.77;102785.38;4106353;28;20026;-65
2023/02/10 01:46:07;;;;;;;;;;;;;;;0.49;65.69;102783.59;4105302;28;19973;-65
2023/02/10 01:48:09;;;;;;;;;;;;;;;0.51;65.59;102789.69;4120999;28;20024;-65
2023/02/10 01:50:13;;;;;;;;;;;;;;;0.51;66.14;102794.16;4103877;28;20024;-65
2023/02/10 01:52:17;;;;;;;;;;;;;;;0.48;66.05;102778.31;4106778;28;20049;-65
2023/02/10 01:54:20;;;;;;;;;;;;;;;0.48;65.92;102779.19;4120534;28;20025;-64
2023/02/10 01:56:22;;;;;;;;;;;;;;;0.47;66.10;102772.16;4105645;28;20025;-65
2023/02/10 01:58:24;;;;;;;;;;;;;;;0.46;66.19;102764.22;4104561;28;20024;-64
2023/02/10 02:00:26;;;;;;;;;;;;;;;0.46;66.20;102772.22;4104938;28;20644;-66
2023/02/10 02:02:28;;;;;;;;;;;;;;;0.46;66.21;102777.53;4106057;28;20028;-65
2023/02/10 02:04:30;;;;;;;;;;;;;;;0.43;66.20;102772.34;4105752;28;20024;-66
2023/02/10 02:06:32;;;;;;;;;;;;;;;0.39;66.28;102776.88;4105441;28;20032;-66
2023/02/10 02:08:36;;;;;;;;;;;;;;;0.34;66.52;102782.38;4105202;28;20012;-64
2023/02/10 02:10:44;;;;;;;;;;;;;;;0.28;66.75;102787.06;4105412;28;20041;-65
2023/02/10 02:12:47;;;;;;;;;;;;;;;0.26;66.88;102786.28;4120601;28;20020;-65
2023/02/10 02:14:51;;;;;;;;;;;;;;;0.22;66.79;102790.88;4105647;28;20017;-65
2023/02/10 02:16:55;;;;;;;;;;;;;;;0.16;66.90;102785.78;4105381;28;20021;-65
2023/02/10 02:18:59;;;;;;;;;;;;;;;0.13;67.05;102792.06;4120671;28;20061;-64
2023/02/10 02:21:31;;;;;;;;;;;;;;;0.11;67.06;102791.28;4089030;29;20060;-64
2023/02/10 02:23:39;;;;;;;;;;;;;;;0.07;67.10;102792.31;4105250;28;20221;-64
2023/02/10 02:25:50;;;;;;;;;;;;;;;0.07;67.20;102794.97;4105802;28;20028;-64
2023/02/10 02:28:01;;;;;;;;;;;;;;;0.07;67.35;102802.06;4106118;28;20033;-65
2023/02/10 02:30:16;;;;;;;;;;;;;;;0.06;67.32;102800.31;4105025;28;20021;-64
2023/02/10 02:32:23;;;;;;;;;;;;;;;0.03;67.14;102798.66;4105657;28;20049;-64
2023/02/10 02:34:26;;;;;;;;;;;;;;;-0.01;67.06;102800.56;4105193;28;20065;-65
2023/02/10 02:36:28;;;;;;;;;;;;;;;-0.01;67.42;102803.22;4103926;28;20037;-65
2023/02/10 02:38:30;;;;;;;;;;;;;;;-0.01;67.28;102802.34;4105967;28;20021;-65
2023/02/10 02:40:32;;;;;;;;;;;;;;;-0.04;67.32;102797.16;4104709;28;20479;-64
2023/02/10 02:42:35;;;;;;;;;;;;;;;-0.07;67.48;102798.13;4120572;28;20028;-65
2023/02/10 02:44:37;;;;;;;;;;;;;;;-0.10;67.62;102798.25;4105297;28;20034;-65
2023/02/10 02:46:43;;;;;;;;;;;;;;;-0.12;67.61;102796.59;4105811;28;20018;-65
2023/02/10 02:48:50;;;;;;;;;;;;;;;-0.14;67.72;102795.75;4105448;28;19926;-65
2023/02/10 02:50:53;;;;;;;;;;;;;;;-0.15;67.73;102797.56;4104708;28;20021;-65
2023/02/10 02:53:05;;;;;;;;;;;;;;;-0.20;67.87;102803.03;4088905;29;20025;-65
2023/02/10 02:55:08;;;;;;;;;;;;;;;-0.23;67.96;102796.97;4119393;28;20951;-65
2023/02/10 02:57:10;;;;;;;;;;;;;;;-0.21;67.97;102803.09;4105695;28;20056;-63
2023/02/10 02:59:13;;;;;;;;;;;;;;;-0.21;68.04;102801.28;4088879;28;20079;-64
2023/02/10 03:01:15;;;;;;;;;;;;;;;-0.21;68.08;102801.28;4101746;28;20552;-65
2023/02/10 03:03:17;;;;;;;;;;;;;;;-0.21;67.97;102806.59;4120040;28;20404;-65
2023/02/10 03:05:23;;;;;;;;;;;;;;;-0.22;67.97;102804.00;4105212;28;20026;-65
2023/02/10 03:07:25;;;;;;;;;;;;;;;-0.24;68.01;102805.84;4105077;28;20041;-65
2023/02/10 03:09:28;;;;;;;;;;;;;;;-0.27;68.15;102803.31;4104954;28;20013;-63
2023/02/10 03:11:30;;;;;;;;;;;;;;;-0.27;68.21;102806.81;4104825;28;20021;-64
2023/02/10 03:13:32;;;;;;;;;;;;;;;-0.27;68.31;102806.81;4105126;28;19933;-63
2023/02/10 03:15:34;;;;;;;;;;;;;;;-0.26;68.13;102810.38;4104820;28;20053;-64
2023/02/10 03:17:36;;;;;;;;;;;;;;;-0.27;68.29;102808.63;4105492;28;20017;-64
2023/02/10 03:19:38;;;;;;;;;;;;;;;-0.29;68.33;102818.44;4103716;28;19934;-64
2023/02/10 03:21:42;;;;;;;;;;;;;;;-0.33;68.53;102820.34;4104964;28;20045;-64
2023/02/10 03:23:44;;;;;;;;;;;;;;;-0.35;68.69;102816.88;4105479;28;20021;-64
2023/02/10 03:25:46;;;;;;;;;;;;;;;-0.35;68.71;102821.31;4104378;28;20009;-64
2023/02/10 03:27:48;;;;;;;;;;;;;;;-0.34;68.78;102828.38;4104802;28;20020;-62
2023/02/10 03:29:51;;;;;;;;;;;;;;;-0.33;68.74;102817.69;4103528;28;20021;-62
2023/02/10 03:31:53;;;;;;;;;;;;;;;-0.37;68.62;102816.06;4105847;28;20021;-64
2023/02/10 03:33:55;;;;;;;;;;;;;;;-0.39;68.88;102821.44;4105717;28;20017;-64
2023/02/10 03:35:58;;;;;;;;;;;;;;;-0.39;68.89;102809.94;4104529;28;20021;-64
2023/02/10 03:38:01;;;;;;;;;;;;;;;-0.39;69.00;102813.47;4103031;28;20009;-63
2023/02/10 03:40:03;;;;;;;;;;;;;;;-0.39;68.99;102829.41;4105055;28;20035;-65
2023/02/10 03:42:06;;;;;;;;;;;;;;;-0.39;69.05;102826.75;4105274;28;20020;-64
2023/02/10 03:44:08;;;;;;;;;;;;;;;-0.37;69.06;102824.03;4107765;28;20030;-63
2023/02/10 03:46:10;;;;;;;;;;;;;;;-0.34;69.13;102820.41;4107557;28;20361;-63
2023/02/10 03:48:12;;;;;;;;;;;;;;;-0.35;69.03;102834.59;4108896;28;20375;-63
2023/02/10 03:50:14;;;;;;;;;;;;;;;-0.39;69.13;102824.09;4107792;28;20025;-64
2023/02/10 03:52:16;;;;;;;;;;;;;;;-0.42;69.31;102829.50;4107993;28;20013;-63
2023/02/10 03:54:19;;;;;;;;;;;;;;;-0.41;69.51;102836.56;4107052;28;20497;-62
2023/02/10 03:56:21;;;;;;;;;;;;;;;-0.43;69.52;102840.19;4107767;28;20009;-63
2023/02/10 03:58:23;;;;;;;;;;;;;;;-0.47;69.63;102842.06;4107630;28;20025;-64
2023/02/10 04:00:25;;;;;;;;;;;;;;;-0.45;69.75;102845.53;4107681;28;20021;-64
2023/02/10 04:02:27;;;;;;;;;;;;;;;-0.48;69.89;102840.34;4106274;28;20025;-62
2023/02/10 04:04:29;;;;;;;;;;;;;;;-0.50;70.11;102842.19;4107767;28;20369;-63
2023/02/10 04:06:31;;;;;;;;;;;;;;;-0.50;70.41;102834.22;4108016;28;20025;-62
2023/02/10 04:08:33;;;;;;;;;;;;;;;-0.45;70.54;102831.41;4108038;28;20087;-62
2023/02/10 04:10:36;;;;;;;;;;;;;;;-0.44;70.53;102836.66;4107019;28;20541;-63
2023/02/10 04:12:38;;;;;;;;;;;;;;;-0.43;70.79;102842.81;4107704;28;20361;-63
2023/02/10 04:14:40;;;;;;;;;;;;;;;-0.45;70.96;102837.56;4107488;28;20020;-63
2023/02/10 04:16:42;;;;;;;;;;;;;;;-0.44;71.15;102826.03;4106835;28;20025;-64
2023/02/10 04:18:44;;;;;;;;;;;;;;;-0.40;71.09;102826.78;4107307;28;20021;-61
2023/02/10 04:20:46;;;;;;;;;;;;;;;-0.38;71.18;102827.59;4107068;28;20365;-63
2023/02/10 04:22:48;;;;;;;;;;;;;;;-0.38;71.05;102836.44;4107508;28;20021;-63
2023/02/10 04:24:50;;;;;;;;;;;;;;;-0.37;71.31;102834.66;4106886;28;20021;-64
2023/02/10 04:26:54;;;;;;;;;;;;;;;-0.36;71.42;102836.41;4106691;28;20028;-64
2023/02/10 04:28:55;;;;;;;;;;;;;;;-0.32;71.55;102831.84;4106444;28;20013;-64
2023/02/10 04:30:58;;;;;;;;;;;;;;;-0.30;71.42;102829.97;4098868;28;20037;-62
2023/02/10 04:33:00;;;;;;;;;;;;;;;-0.31;71.67;102823.81;4102283;28;20013;-63
2023/02/10 04:35:02;;;;;;;;;;;;;;;-0.29;71.86;102821.09;4106361;28;20022;-63
2023/02/10 04:37:04;;;;;;;;;;;;;;;-0.28;71.92;102826.34;4105330;28;20049;-63
2023/02/10 04:39:06;;;;;;;;;;;;;;;-0.26;71.91;102811.22;4106095;28;20452;-63
2023/02/10 04:41:08;;;;;;;;;;;;;;;-0.27;72.29;102804.16;4101914;28;20037;-64
2023/02/10 04:43:11;;;;;;;;;;;;;;;-0.26;72.41;102813.03;4099879;28;20017;-63
2023/02/10 04:45:13;;;;;;;;;;;;;;;-0.24;72.53;102827.09;4099892;28;20037;-63
2023/02/10 04:47:15;;;;;;;;;;;;;;;-0.22;72.50;102819.94;4106106;28;20025;-62
2023/02/10 04:49:17;;;;;;;;;;;;;;;-0.21;72.64;102816.38;4106271;28;20026;-62
2023/02/10 04:51:19;;;;;;;;;;;;;;;-0.19;72.68;102814.50;4105255;28;20013;-64
2023/02/10 04:53:21;;;;;;;;;;;;;;;-0.17;72.75;102820.66;4103670;28;20017;-64
2023/02/10 04:55:23;;;;;;;;;;;;;;;-0.15;72.79;102831.22;4100426;28;20042;-64
2023/02/10 04:57:25;;;;;;;;;;;;;;;-0.13;73.04;102829.38;4103952;28;20383;-63
2023/02/10 04:59:28;;;;;;;;;;;;;;;-0.11;72.99;102831.06;4103826;28;20025;-64
2023/02/10 05:01:30;;;;;;;;;;;;;;;-0.08;72.95;102841.56;4105370;28;20452;-64
2023/02/10 05:03:32;;;;;;;;;;;;;;;-0.06;73.10;102837.06;4106650;28;20037;-63
2023/02/10 05:05:34;;;;;;;;;;;;;;;-0.03;73.13;102850.22;4104012;28;20009;-63
2023/02/10 05:07:36;;;;;;;;;;;;;;;-0.03;73.35;102836.94;4106133;28;20034;-64
2023/02/10 05:09:38;;;;;;;;;;;;;;;-0.01;73.28;102832.44;4104684;28;20907;-63
2023/02/10 05:11:41;;;;;;;;;;;;;;;0.00;73.61;102841.28;4103506;28;20017;-64
2023/02/10 05:13:45;;;;;;;;;;;;;;;0.01;73.72;102836.84;4103278;28;20042;-63
2023/02/10 05:15:49;;;;;;;;;;;;;;;0.02;73.98;102839.44;4106230;28;20021;-64
2023/02/10 05:17:51;;;;;;;;;;;;;;;0.03;74.15;102845.59;4106659;28;20020;-63
2023/02/10 05:19:53;;;;;;;;;;;;;;;0.05;74.24;102844.66;4106062;28;20448;-63
2023/02/10 05:21:55;;;;;;;;;;;;;;;0.07;74.31;102850.75;4106123;28;20020;-65
2023/02/10 05:23:58;;;;;;;;;;;;;;;0.10;74.16;102857.75;4104869;28;20028;-64
2023/02/10 05:26:00;;;;;;;;;;;;;;;0.13;73.91;102849.69;4106058;28;20619;-64
2023/02/10 05:28:02;;;;;;;;;;;;;;;0.15;73.83;102839.84;4106096;28;20017;-64
2023/02/10 05:30:04;;;;;;;;;;;;;;;0.19;73.43;102846.78;4101368;28;20029;-64
2023/02/10 05:32:08;;;;;;;;;;;;;;;0.21;73.22;102839.63;4101249;28;20020;-65
2023/02/10 05:34:10;;;;;;;;;;;;;;;0.24;73.32;102839.50;4101477;28;20021;-64
2023/02/10 05:36:12;;;;;;;;;;;;;;;0.26;73.22;102844.75;4103616;28;20014;-63
2023/02/10 05:38:14;;;;;;;;;;;;;;;0.27;73.50;102850.00;4104978;28;20036;-62
2023/02/10 05:40:16;;;;;;;;;;;;;;;0.25;73.88;102841.25;4103379;28;20017;-63
2023/02/10 05:42:18;;;;;;;;;;;;;;;0.24;74.09;102849.28;4103238;28;20429;-63
2023/02/10 05:44:20;;;;;;;;;;;;;;;0.23;74.23;102851.03;4103973;28;20013;-62
2023/02/10 05:46:22;;;;;;;;;;;;;;;0.23;74.24;102859.00;4104830;28;20025;-65
2023/02/10 05:48:25;;;;;;;;;;;;;;;0.21;74.45;102858.22;4105456;28;20053;-64
2023/02/10 05:50:27;;;;;;;;;;;;;;;0.21;74.37;102847.59;4102540;28;20029;-63
2023/02/10 05:52:29;;;;;;;;;;;;;;;0.22;74.35;102856.41;4103403;28;20379;-64
2023/02/10 05:54:31;;;;;;;;;;;;;;;0.22;74.27;102859.06;4103390;28;20065;-65
2023/02/10 05:56:33;;;;;;;;;;;;;;;0.23;74.19;102853.69;4101093;28;20022;-65
2023/02/10 05:58:36;;;;;;;;;;;;;;;0.26;73.86;102850.06;4099932;28;19966;-65
2023/02/10 06:00:37;;;;;;;;;;;;;;;0.26;73.95;102852.72;4103735;28;20355;-65
2023/02/10 06:02:39;;;;;;;;;;;;;;;0.25;74.04;102857.19;4104503;28;20025;-64
2023/02/10 06:04:43;;;;;;;;;;;;;;;0.26;74.00;102858.91;4105015;28;20021;-65
2023/02/10 06:06:45;;;;;;;;;;;;;;;0.27;74.02;102854.47;4104805;28;20053;-64
2023/02/10 06:08:47;;;;;;;;;;;;;;;0.27;74.11;102849.16;4104910;28;20359;-63
2023/02/10 06:10:49;;;;;;;;;;;;;;;0.25;74.25;102859.84;4105739;28;20441;-64
2023/02/10 06:12:50;;;;;;;;;;;;;;;0.26;74.19;102872.19;4096777;28;20041;-65
2023/02/10 06:14:52;;;;;;;;;;;;;;;0.26;74.32;102874.00;4081600;28;20415;-65
2023/02/10 06:16:54;;;;;;;;;;;;;;;0.27;74.28;102875.75;4102317;28;20017;-65
2023/02/10 06:18:56;;;;;;;;;;;;;;;0.28;74.38;102880.09;4105456;28;20017;-62
2023/02/10 06:21:00;;;;;;;;;;;;;;;0.28;74.43;102869.47;4103299;28;20013;-64
2023/02/10 06:23:02;;;;;;;;;;;;;;;0.28;74.19;102870.38;4104496;28;20481;-65
2023/02/10 06:25:04;;;;;;;;;;;;;;;0.30;73.90;102868.50;4105649;28;20021;-65
2023/02/10 06:27:06;;;;;;;;;;;;;;;0.31;73.82;102874.69;4105652;28;20033;-64
2023/02/10 06:29:08;;;;;;;;;;;;;;;0.29;74.10;102881.84;4105340;28;20425;-64
2023/02/10 06:31:10;;;;;;;;;;;;;;;0.28;74.03;102883.66;4104015;28;20017;-64
2023/02/10 06:33:12;;;;;;;;;;;;;;;0.29;74.35;102887.16;4103706;28;20025;-64
2023/02/10 06:35:14;;;;;;;;;;;;;;;0.27;74.51;102886.38;4104662;28;20025;-64
2023/02/10 06:37:18;;;;;;;;;;;;;;;0.28;74.38;102891.63;4106530;28;20034;-66
2023/02/10 06:39:20;;;;;;;;;;;;;;;0.27;74.57;102894.34;4105317;28;20017;-64
2023/02/10 06:41:22;;;;;;;;;;;;;;;0.26;74.90;102893.47;4119750;28;20109;-64
2023/02/10 06:43:24;;;;;;;;;;;;;;;0.25;75.08;102890.84;4105491;28;20017;-64
2023/02/10 06:45:26;;;;;;;;;;;;;;;0.24;75.00;102897.97;4104612;28;20018;-63
2023/02/10 06:47:28;;;;;;;;;;;;;;;0.23;75.31;102892.72;4105811;28;20380;-64
2023/02/10 06:49:30;;;;;;;;;;;;;;;0.21;75.63;102892.75;4104839;28;20009;-64
2023/02/10 06:51:32;;;;;;;;;;;;;;;0.20;75.84;102887.50;4103644;28;20020;-64
2023/02/10 06:53:35;;;;;;;;;;;;;;;0.20;75.90;102888.38;4104547;28;20025;-63
2023/02/10 06:55:37;;;;;;;;;;;;;;;0.21;76.01;102903.41;4105287;28;20021;-65
2023/02/10 06:57:39;;;;;;;;;;;;;;;0.22;76.02;102896.28;4105097;28;20020;-65
2023/02/10 06:59:41;;;;;;;;;;;;;;;0.22;75.96;102897.16;4088034;29;20368;-63
2023/02/10 07:01:43;;;;;;;;;;;;;;;0.23;75.92;102898.88;4104913;28;20025;-62
2023/02/10 07:03:45;;;;;;;;;;;;;;;0.25;75.90;102912.13;4105726;28;20017;-62
2023/02/10 07:05:47;;;;;;;;;;;;;;;0.26;75.55;102911.19;4104535;28;20108;-64
2023/02/10 07:07:50;;;;;;;;;;;;;;;0.25;75.87;102910.34;4104662;28;20017;-64
2023/02/10 07:09:54;;;;;;;;;;;;;;;0.25;75.86;102923.63;4119297;28;20387;-61
2023/02/10 07:11:55;;;;;;;;;;;;;;;0.24;75.90;102916.56;4105324;28;20014;-62
2023/02/10 07:13:58;;;;;;;;;;;;;;;0.23;76.15;102913.97;4104964;28;20044;-62
2023/02/10 07:16:02;;;;;;;;;;;;;;;0.22;76.30;102907.81;4103382;28;20320;-62
2023/02/10 07:18:04;;;;;;;;;;;;;;;0.23;76.30;102906.00;4104948;28;20034;-63
2023/02/10 07:20:06;;;;;;;;;;;;;;;0.22;76.40;102912.22;4107108;28;20377;-62
2023/02/10 07:22:08;;;;;;;;;;;;;;;0.23;76.42;102927.25;4108354;28;20375;-62
2023/02/10 07:24:10;;;;;;;;;;;;;;;0.22;76.64;102918.44;4108754;28;20025;-62
2023/02/10 07:26:17;;;;;;;;;;;;;;;0.23;76.84;102925.47;4108553;28;20016;-61
2023/02/10 07:28:19;;;;;;;;;;;;;;;0.24;76.41;102921.88;4107956;28;20629;-62
2023/02/10 07:30:21;;;;;;;;;;;;;;;0.26;76.55;102920.03;4107961;28;20025;-61
2023/02/10 07:32:23;;;;;;;;;;;;;;;0.29;76.31;102927.03;4105942;28;20020;-62
2023/02/10 07:34:25;;;;;;;;;;;;;;;0.31;75.90;102931.38;4107393;28;20017;-62
2023/02/10 07:36:27;;;;;;;;;;;;;;;0.33;76.02;102941.97;4107118;28;20030;-61
2023/02/10 07:38:29;;;;;;;;;;;;;;;0.34;nan;102939.22;4106411;28;20021;-62
2023/02/10 07:40:31;;;;;;;;;;;;;;;0.37;75.58;102938.25;4107146;28;20420;-62
2023/02/10 07:42:35;;;;;;;;;;;;;;;0.37;75.73;102932.94;4107307;28;20030;-61
2023/02/10 07:44:57;;;;;;;;;;;;;;;0.41;75.37;102926.59;4087337;28;20335;-62
2023/02/10 07:46:59;;;;;;;;;;;;;;;0.43;74.98;102932.72;4106397;28;20038;-62
2023/02/10 07:49:00;;;;;;;;;;;;;;;0.46;74.64;102934.41;4105440;28;20022;-61
2023/02/10 07:51:02;;;;;;;;;;;;;;;0.48;74.37;102930.72;4106634;28;20361;-62
2023/02/10 07:53:04;;;;;;;;;;;;;;;0.51;74.33;102935.94;4107352;28;20033;-63
2023/02/10 07:55:06;;;;;;;;;;;;;;;0.53;73.94;102936.78;4105480;28;20355;-63
2023/02/10 07:57:08;;;;;;;;;;;;;;;0.56;74.16;102941.09;4106818;28;20017;-63
2023/02/10 07:59:12;;;;;;;;;;;;;;;0.59;74.20;102946.28;4106247;28;20021;-62
2023/02/10 08:01:14;;;;;;;;;;;;;;;0.61;73.86;102946.22;4106579;28;20030;-61
2023/02/10 08:03:16;;;;;;;;;;;;;;;0.63;72.81;102945.25;4106864;28;20022;-63
2023/02/10 08:05:18;;;;;;;;;;;;;;;0.65;72.76;102940.75;4106514;28;20020;-62
2023/02/10 08:07:20;;;;;;;;;;;;;;;0.67;71.88;102949.53;4107251;28;20025;-62
2023/02/10 08:09:22;;;;;;;;;;;;;;;0.69;70.76;102953.00;4106041;28;20329;-62
2023/02/10 08:11:24;;;;;;;;;;;;;;;0.74;70.86;102957.25;4106539;28;20013;-63
2023/02/10 08:13:27;;;;;;;;;;;;;;;0.76;70.22;102950.97;4107030;28;20536;-62
2023/02/10 08:15:30;;;;;;;;;;;;;;;0.78;69.89;102959.75;4106118;28;20444;-64
2023/02/10 08:17:32;;;;;;;;;;;;;;;0.81;70.00;102953.47;4107025;28;20033;-62
2023/02/10 08:19:36;;;;;;;;;;;;;;;0.83;69.88;102965.78;4106300;28;20041;-61
2023/02/10 08:21:38;;;;;;;;;;;;;;;0.86;70.09;102964.78;4106606;28;20029;-63
2023/02/10 08:23:39;;;;;;;;;;;;;;;0.89;69.93;102968.22;4106444;28;20373;-63
2023/02/10 08:25:41;;;;;;;;;;;;;;;0.92;69.73;102967.19;4106411;28;20013;-60
2023/02/10 08:27:43;;;;;;;;;;;;;;;0.95;70.52;102974.22;4106621;28;20024;-64
2023/02/10 08:29:45;;;;;;;;;;;;;;;0.97;69.91;102961.69;4104131;28;20021;-63
2023/02/10 08:31:50;;;;;;;;;;;;;;;0.99;70.04;102967.84;4106488;28;20024;-64
2023/02/10 08:33:52;;;;;;;;;;;;;;;0.99;69.59;102973.19;4106339;28;20452;-63
2023/02/10 08:35:54;;;;;;;;;;;;;;;1.01;69.24;102985.47;4106352;28;20387;-64
2023/02/10 08:37:56;;;;;;;;;;;;;;;1.04;69.21;102979.19;4106965;28;20025;-62
2023/02/10 08:39:59;;;;;;;;;;;;;;;1.06;68.67;102982.63;4106338;28;20083;-64
2023/02/10 08:42:01;;;;;;;;;;;;;;;1.09;68.68;102985.19;4105892;28;20034;-64
2023/02/10 08:44:03;;;;;;;;;;;;;;;1.13;68.68;102991.25;4106885;28;20017;-63
2023/02/10 08:46:05;;;;;;;;;;;;;;;1.16;68.95;102986.69;4105804;28;20621;-64
2023/02/10 08:48:08;;;;;;;;;;;;;;;1.17;68.58;102979.56;4106077;28;19985;-62
2023/02/10 08:50:10;;;;;;;;;;;;;;;1.20;69.64;102985.63;4105568;28;20026;-62
2023/02/10 08:52:12;;;;;;;;;;;;;;;1.21;68.70;102987.38;4105328;28;20017;-63
2023/02/10 08:54:14;;;;;;;;;;;;;;;1.25;68.74;102980.13;4105837;28;20013;-64
2023/02/10 08:56:17;;;;;;;;;;;;;;;1.26;68.26;102982.72;4105323;28;20579;-64
2023/02/10 08:58:19;;;;;;;;;;;;;;;1.30;68.77;102987.91;4106173;28;20385;-63
2023/02/10 09:00:21;;;;;;;;;;;;;;;1.34;68.92;102987.72;4105218;28;20013;-63
2023/02/10 09:02:23;;;;;;;;;;;;;;;1.36;68.88;102979.69;4105957;28;20024;-64
2023/02/10 09:04:26;;;;;;;;;;;;;;;1.39;68.85;102983.06;4105828;28;20013;-64
2023/02/10 09:06:30;;;;;;;;;;;;;;;1.39;68.08;102987.56;4105885;28;20025;-63
2023/02/10 09:08:32;;;;;;;;;;;;;;;1.41;68.35;102980.34;4105590;28;20029;-63
2023/02/10 09:10:33;;;;;;;;;;;;;;;1.44;68.27;102982.91;4105126;28;20697;-63
2023/02/10 09:12:35;;;;;;;;;;;;;;;1.47;67.95;102987.25;4106263;28;20049;-63
2023/02/10 09:14:37;;;;;;;;;;;;;;;1.48;68.06;102978.34;4105193;28;20050;-63
2023/02/10 09:16:39;;;;;;;;;;;;;;;1.52;67.88;102982.59;4105923;28;20030;-63
2023/02/10 09:18:42;;;;;;;;;;;;;;;1.53;68.11;102994.97;4105586;28;20032;-63
2023/02/10 09:20:45;;;;;;;;;;;;;;;1.57;68.18;102991.28;4104391;28;20013;-62
2023/02/10 09:22:47;;;;;;;;;;;;;;;1.60;67.81;102989.34;4104470;28;20014;-62
2023/02/10 09:24:51;;;;;;;;;;;;;;;1.64;67.66;102992.75;4104032;28;20021;-61
2023/02/10 09:26:53;;;;;;;;;;;;;;;1.72;68.12;102985.28;4104156;28;20033;-63
2023/02/10 09:28:55;;;;;;;;;;;;;;;1.75;68.04;102984.31;4105392;28;20029;-63
2023/02/10 09:30:57;;;;;;;;;;;;;;;1.80;68.06;102992.97;4104628;28;20032;-63
2023/02/10 09:32:59;;;;;;;;;;;;;;;1.85;67.86;102995.44;4104128;28;20472;-63
2023/02/10 09:35:01;;;;;;;;;;;;;;;1.87;68.12;102999.78;4104785;28;20445;-62
2023/02/10 09:37:06;;;;;;;;;;;;;;;1.93;68.49;102996.84;4105539;28;20018;-64
2023/02/10 09:39:08;;;;;;;;;;;;;;;1.97;68.45;102994.91;4104768;28;20373;-62
2023/02/10 09:41:13;;;;;;;;;;;;;;;1.99;67.79;102998.38;4105002;28;20016;-64
2023/02/10 09:43:17;;;;;;;;;;;;;;;2.02;67.96;102994.72;4105645;28;20469;-63
2023/02/10 09:45:20;;;;;;;;;;;;;;;2.05;68.79;102992.78;4105266;28;20028;-64
2023/02/10 09:47:27;;;;;;;;;;;;;;;2.09;67.77;102989.06;4105852;28;20014;-63
2023/02/10 09:49:40;;;;;;;;;;;;;;;2.11;68.01;102992.50;4104779;28;20578;-62
2023/02/10 09:51:44;;;;;;;;;;;;;;;2.12;68.13;102991.59;4104755;28;19962;-64
2023/02/10 09:53:47;;;;;;;;;;;;;;;2.16;68.08;103005.66;4106378;28;20026;-64
2023/02/10 09:55:49;;;;;;;;;;;;;;;2.20;68.10;103017.94;4104723;28;20016;-64
2023/02/10 09:57:52;;;;;;;;;;;;;;;2.23;68.27;103015.13;4105280;28;20024;-63
2023/02/10 09:59:54;;;;;;;;;;;;;;;2.26;68.37;103012.31;4105230;28;20440;-62
2023/02/10 10:01:57;;;;;;;;;;;;;;;2.30;68.33;103008.59;4105195;28;20028;-63
2023/02/10 10:04:01;;;;;;;;;;;;;;;2.33;68.10;103007.59;4105470;28;20029;-63
2023/02/10 10:06:05;;;;;;;;;;;;;;;2.40;68.03;103010.84;4105487;28;20449;-63
2023/02/10 10:08:10;;;;;;;;;;;;;;;2.42;68.25;103014.31;4106251;28;20025;-63
2023/02/10 10:10:13;;;;;;;;;;;;;;;2.46;68.30;103016.78;4104888;28;20033;-64
2023/02/10 10:12:16;;;;;;;;;;;;;;;2.48;68.61;103022.06;4105886;28;20400;-63
2023/02/10 10:14:19;;;;;;;;;;;;;;;2.51;68.62;103021.91;4105048;28;20020;-62
2023/02/10 10:16:24;;;;;;;;;;;;;;;2.53;68.48;103023.56;4104769;28;20045;-63
2023/02/10 10:18:27;;;;;;;;;;;;;;;2.59;68.59;103019.78;4103994;28;20009;-63
2023/02/10 10:20:32;;;;;;;;;;;;;;;2.59;68.46;103022.44;4104562;28;20020;-64
2023/02/10 10:22:39;;;;;;;;;;;;;;;2.61;68.76;103020.56;4105769;28;20461;-63
2023/02/10 10:24:43;;;;;;;;;;;;;;;2.66;68.69;103031.88;4104753;28;20042;-64
2023/02/10 10:27:00;;;;;;;;;;;;;;;2.69;68.70;103021.06;4102991;28;20050;-63
2023/02/10 10:29:02;;;;;;;;;;;;;;;2.71;68.56;103029.00;4103408;28;20017;-63
2023/02/10 10:31:07;;;;;;;;;;;;;;;2.74;68.89;103036.88;4101076;28;20046;-62
2023/02/10 10:33:15;;;;;;;;;;;;;;;2.75;69.05;103038.63;4116696;28;20885;-62
2023/02/10 10:35:17;;;;;;;;;;;;;;;2.79;69.18;103040.22;4103140;28;20020;-63
2023/02/10 10:37:20;;;;;;;;;;;;;;;2.78;68.70;103029.63;4103527;28;20025;-64
2023/02/10 10:39:24;;;;;;;;;;;;;;;2.77;68.92;103030.53;4103970;28;20041;-63